Time;durP1;ratioP1;P1;durP2;ratioP2;P2;SDS_P1;SDS_P2;PMS_P1;PMS_P2;Temp;Humidity;BMP_temperature;BMP_pressure;BME280_temperature;BME280_humidity;BME280_pressure;Samples;Min_cycle;Max_cycle;Signal;HPM_P1;HPM_P2
2022/10/01 00:01:03;;;;;;;5.18;3.90;;;;;;;12.91;81.81;100341.78;5013181;28;20051;-72
2022/10/01 00:03:30;;;;;;;4.53;3.53;;;;;;;12.84;82.32;100333.09;5017231;28;20037;-72
2022/10/01 00:06:00;;;;;;;6.05;3.65;;;;;;;12.83;82.62;100332.25;5035218;28;20036;-72
2022/10/01 00:08:27;;;;;;;5.32;3.45;;;;;;;12.76;82.76;100320.13;5032305;28;20025;-72
2022/10/01 00:10:53;;;;;;;6.88;3.95;;;;;;;12.82;82.51;100321.91;5035186;28;20025;-72
2022/10/01 00:13:19;;;;;;;4.22;3.70;;;;;;;12.82;82.55;100312.47;5034300;28;20039;-72
2022/10/01 00:15:44;;;;;;;4.55;3.65;;;;;;;12.84;82.20;100315.91;5034349;28;20192;-72
2022/10/01 00:18:10;;;;;;;6.20;3.30;;;;;;;12.82;82.42;100281.50;5036700;28;20512;-72
2022/10/01 00:20:43;;;;;;;4.53;3.72;;;;;;;12.85;82.69;100298.72;5032503;28;20748;-71
2022/10/01 00:23:13;;;;;;;4.07;3.40;;;;;;;12.81;82.94;100295.25;5018465;28;20036;-72
2022/10/01 00:25:39;;;;;;;4.93;3.30;;;;;;;12.79;82.72;100296.94;5038733;28;20056;-72
2022/10/01 00:28:05;;;;;;;4.47;3.25;;;;;;;12.77;83.17;100310.69;5032371;28;20075;-72
2022/10/01 00:30:31;;;;;;;5.20;3.20;;;;;;;12.75;83.19;100302.94;5038585;28;20037;-72
2022/10/01 00:32:56;;;;;;;6.65;3.75;;;;;;;12.78;83.03;100278.88;5037790;28;20656;-72
2022/10/01 00:35:22;;;;;;;4.38;3.40;;;;;;;12.77;83.01;100290.03;5040744;28;20056;-72
2022/10/01 00:37:52;;;;;;;6.53;3.58;;;;;;;12.76;83.00;100278.84;5038302;28;20558;-72
2022/10/01 00:40:20;;;;;;;4.78;3.50;;;;;;;12.72;83.16;100278.81;5034536;28;20537;-73
2022/10/01 00:42:46;;;;;;;7.13;3.60;;;;;;;12.77;83.25;100288.31;5038967;28;20480;-72
2022/10/01 00:45:15;;;;;;;4.50;3.42;;;;;;;12.71;83.95;100289.97;5039295;28;20029;-73
2022/10/01 00:47:46;;;;;;;5.95;3.47;;;;;;;12.74;83.81;100283.16;5040063;28;20053;-73
2022/10/01 00:50:12;;;;;;;8.18;3.70;;;;;;;12.69;83.88;100287.38;5038419;28;20585;-73
2022/10/01 00:52:40;;;;;;;4.68;3.60;;;;;;;12.72;84.41;100276.22;5041317;28;20033;-72
2022/10/01 00:55:19;;;;;;;6.13;3.93;;;;;;;12.64;83.59;100265.84;5040567;28;20120;-73
2022/10/01 00:57:45;;;;;;;6.57;3.58;;;;;;;12.65;84.06;100272.72;5037299;28;20530;-72
2022/10/01 01:00:12;;;;;;;5.22;3.30;;;;;;;12.63;84.60;100273.56;5036205;28;20113;-72
2022/10/01 01:02:38;;;;;;;5.47;3.80;;;;;;;12.64;84.78;100273.56;5038612;28;20055;-73
2022/10/01 01:05:04;;;;;;;4.43;3.53;;;;;;;12.63;85.13;100266.69;5041052;28;20043;-72
2022/10/01 01:07:31;;;;;;;3.83;3.35;;;;;;;12.60;85.74;100264.06;5039397;28;20025;-72
2022/10/01 01:09:58;;;;;;;6.90;3.83;;;;;;;12.59;86.22;100265.78;5036930;28;20022;-72
2022/10/01 01:12:26;;;;;;;5.25;3.60;;;;;;;12.60;86.44;100266.66;5032205;28;20181;-73
2022/10/01 01:15:02;;;;;;;5.07;3.13;;;;;;;12.60;86.41;100253.75;5034463;28;20434;-73
2022/10/01 01:17:53;;;;;;;4.97;3.30;;;;;;;12.60;86.75;100203.03;5034888;28;20025;-72
2022/10/01 01:20:28;;;;;;;5.35;3.30;;;;;;;12.53;87.03;100170.31;5021192;28;20365;-73
2022/10/01 01:23:00;;;;;;;4.15;3.00;;;;;;;12.48;87.17;100153.06;5033135;28;20041;-73
2022/10/01 01:25:36;;;;;;;5.43;2.97;;;;;;;12.48;87.38;100155.63;5036094;28;20021;-73
2022/10/01 01:28:23;;;;;;;6.07;2.88;;;;;;;12.51;87.44;100160.84;5034809;28;20727;-73
2022/10/01 01:30:52;;;;;;;3.72;2.50;;;;;;;12.44;88.04;100169.38;5038681;28;20032;-73
2022/10/01 01:33:21;;;;;;;3.83;2.60;;;;;;;12.47;87.92;100183.13;5042163;28;20022;-73
2022/10/01 01:35:54;;;;;;;4.68;2.53;;;;;;;12.46;87.76;100185.72;5038373;28;20108;-73
2022/10/01 01:38:26;;;;;;;4.80;2.78;;;;;;;12.44;88.40;100180.53;5033735;28;20409;-73
2022/10/01 01:40:55;;;;;;;3.83;2.45;;;;;;;12.46;88.05;100201.19;5039290;28;20029;-73
2022/10/01 01:43:28;;;;;;;2.70;2.30;;;;;;;12.45;88.43;100196.88;5034437;28;20034;-73
2022/10/01 01:45:53;;;;;;;3.28;2.33;;;;;;;12.47;88.26;100200.31;5022080;28;20292;-74
2022/10/01 01:48:22;;;;;;;2.20;2.00;;;;;;;12.44;88.20;100171.94;5038741;28;20072;-73
2022/10/01 01:50:56;;;;;;;2.83;2.30;;;;;;;12.43;88.51;100158.16;5039072;28;20022;-74
2022/10/01 01:53:22;;;;;;;2.72;2.10;;;;;;;12.47;88.32;100165.09;5039612;28;20028;-73
2022/10/01 01:55:48;;;;;;;2.92;1.92;;;;;;;12.46;88.60;100170.25;5039304;28;20056;-73
2022/10/01 01:58:17;;;;;;;2.55;1.90;;;;;;;12.45;88.50;100166.81;5036141;28;20032;-73
2022/10/01 02:00:43;;;;;;;2.10;1.80;;;;;;;12.45;88.36;100169.38;5037157;28;20029;-73
2022/10/01 02:03:09;;;;;;;1.90;1.80;;;;;;;12.44;88.74;100156.47;5008972;28;20605;-73
2022/10/01 02:05:57;;;;;;;3.00;1.63;;;;;;;12.43;88.96;100152.16;5019181;28;20029;-72
2022/10/01 02:08:38;;;;;;;2.10;1.73;;;;;;;12.40;89.34;100152.13;5016596;28;20028;-73
2022/10/01 02:11:25;;;;;;;2.97;2.20;;;;;;;12.43;89.09;100147.84;5012431;28;20516;-73
2022/10/01 02:14:02;;;;;;;3.08;2.05;;;;;;;12.45;89.86;100153.91;5013968;28;20056;-72
2022/10/01 02:17:05;;;;;;;4.07;1.90;;;;;;;12.47;89.40;100149.63;5016466;28;20030;-73
2022/10/01 02:19:43;;;;;;;2.83;1.92;;;;;;;12.39;90.20;100134.94;5004151;28;20072;-73
2022/10/01 02:22:17;;;;;;;1.83;1.60;;;;;;;12.41;90.39;100125.50;5013998;28;20076;-74
2022/10/01 02:25:00;;;;;;;2.83;1.52;;;;;;;12.40;89.97;100110.88;5013907;28;20024;-73
2022/10/01 02:27:28;;;;;;;2.35;1.63;;;;;;;12.35;90.36;100114.28;5011690;28;20033;-73
2022/10/01 02:29:58;;;;;;;2.30;1.30;;;;;;;12.32;90.40;100116.84;5021289;28;20079;-74
2022/10/01 02:32:25;;;;;;;2.75;1.38;;;;;;;12.34;90.48;100099.66;5015380;28;20021;-73
2022/10/01 02:34:53;;;;;;;1.48;1.20;;;;;;;12.34;90.51;100119.44;5018466;28;20044;-73
2022/10/01 02:37:23;;;;;;;3.15;1.35;;;;;;;12.34;91.14;100112.56;5017195;28;20071;-73
2022/10/01 02:39:51;;;;;;;1.63;1.20;;;;;;;12.33;91.05;100104.81;5013621;28;20025;-73
2022/10/01 02:42:20;;;;;;;1.58;1.20;;;;;;;12.31;91.16;100081.56;5016058;28;20032;-73
2022/10/01 02:44:48;;;;;;;3.58;1.30;;;;;;;12.27;91.33;100100.47;5014646;28;20030;-73
2022/10/01 02:47:25;;;;;;;1.65;1.17;;;;;;;12.29;91.39;100085.88;5015060;28;20022;-74
2022/10/01 02:49:51;;;;;;;1.10;1.00;;;;;;;12.31;91.29;100078.13;5016920;28;20063;-74
2022/10/01 02:52:19;;;;;;;3.85;1.20;;;;;;;12.30;91.50;100109.94;5013606;28;20025;-73
2022/10/01 02:54:54;;;;;;;2.17;1.20;;;;;;;12.32;91.57;100093.63;5013337;28;20091;-73
2022/10/01 02:57:22;;;;;;;2.65;1.20;;;;;;;12.31;91.52;100102.19;5012442;28;20025;-73
2022/10/01 02:59:48;;;;;;;1.90;1.02;;;;;;;12.30;91.69;100095.31;5013792;28;20038;-74
2022/10/01 03:02:14;;;;;;;1.33;1.02;;;;;;;12.27;92.33;100097.03;5016730;28;20037;-73
2022/10/01 03:04:40;;;;;;;1.65;1.13;;;;;;;12.31;92.05;100083.28;5039075;28;20032;-73
2022/10/01 03:07:05;;;;;;;2.42;1.20;;;;;;;12.33;92.01;100085.06;5036666;28;20042;-73
2022/10/01 03:09:32;;;;;;;2.00;1.13;;;;;;;12.35;92.16;100091.06;5035148;28;20044;-73
2022/10/01 03:11:58;;;;;;;2.55;1.10;;;;;;;12.37;91.84;100101.38;5035064;28;20029;-73
2022/10/01 03:14:24;;;;;;;1.88;0.90;;;;;;;12.38;92.13;100108.31;5033674;28;20033;-73
2022/10/01 03:16:53;;;;;;;1.17;0.90;;;;;;;12.41;92.30;100081.66;5033402;28;20403;-74
2022/10/01 03:19:19;;;;;;;4.63;0.95;;;;;;;12.39;91.92;100073.06;5034170;28;20080;-73
2022/10/01 03:21:44;;;;;;;1.30;0.80;;;;;;;12.39;92.11;100089.41;5021402;28;20463;-73
2022/10/01 03:24:10;;;;;;;1.05;0.90;;;;;;;12.45;92.04;100091.16;5032155;28;20056;-73
2022/10/01 03:26:36;;;;;;;1.45;0.73;;;;;;;12.40;92.15;100077.38;5035634;28;20519;-73
2022/10/01 03:29:02;;;;;;;1.88;0.88;;;;;;;12.43;92.09;100082.53;5037475;28;20036;-73
2022/10/01 03:31:28;;;;;;;2.63;1.00;;;;;;;12.38;92.40;100079.03;5039935;28;20545;-73
2022/10/01 03:33:53;;;;;;;1.13;0.80;;;;;;;12.35;92.23;100074.75;5038443;28;20037;-73
2022/10/01 03:36:19;;;;;;;1.15;0.90;;;;;;;12.40;92.42;100079.94;5039652;28;20504;-73
2022/10/01 03:38:44;;;;;;;1.30;0.88;;;;;;;12.45;92.34;100068.81;5039952;28;20288;-73
2022/10/01 03:41:09;;;;;;;1.05;0.77;;;;;;;12.41;92.46;100079.94;5038919;28;20052;-73
2022/10/01 03:43:35;;;;;;;1.58;0.75;;;;;;;12.41;92.63;100074.78;5038013;28;20025;-73
2022/10/01 03:46:01;;;;;;;1.38;0.70;;;;;;;12.43;92.50;100073.06;5037845;28;20544;-73
2022/10/01 03:48:27;;;;;;;0.73;0.60;;;;;;;12.42;92.65;100085.97;5037541;28;20032;-73
2022/10/01 03:50:57;;;;;;;2.00;0.65;;;;;;;12.42;93.18;100089.41;5033520;28;20071;-73
2022/10/01 03:53:26;;;;;;;0.70;0.70;;;;;;;12.44;93.08;100089.44;5033906;28;20030;-73
2022/10/01 03:55:52;;;;;;;1.88;0.80;;;;;;;12.46;92.93;100098.91;5037040;28;20032;-73
2022/10/01 03:58:17;;;;;;;0.82;0.60;;;;;;;12.48;93.01;100094.63;5039615;28;20041;-73
2022/10/01 04:00:45;;;;;;;0.63;0.50;;;;;;;12.47;93.06;100081.72;5036370;28;20473;-73
2022/10/01 04:03:10;;;;;;;0.80;0.40;;;;;;;12.50;93.29;100089.50;5016988;28;20072;-73
2022/10/01 04:05:36;;;;;;;0.63;0.50;;;;;;;12.49;93.32;100085.16;5019858;28;20648;-73
2022/10/01 04:08:01;;;;;;;0.85;0.70;;;;;;;12.50;93.55;100086.91;5022369;28;20049;-73
2022/10/01 04:10:26;;;;;;;0.90;0.50;;;;;;;12.51;93.57;100091.22;5019212;28;20091;-73
2022/10/01 04:12:54;;;;;;;1.45;0.55;;;;;;;12.56;93.12;100092.97;5024123;28;20047;-73
2022/10/01 04:15:20;;;;;;;1.05;0.50;;;;;;;12.50;93.74;100081.75;5021323;28;20488;-73
2022/10/01 04:17:46;;;;;;;0.80;0.55;;;;;;;12.55;93.30;100091.22;5020804;28;20037;-73
2022/10/01 04:20:12;;;;;;;0.68;0.47;;;;;;;12.55;93.78;100095.53;5018404;28;20098;-73
2022/10/01 04:22:39;;;;;;;1.02;0.40;;;;;;;12.57;93.83;100086.09;5018295;28;20120;-73
2022/10/01 04:25:06;;;;;;;0.50;0.40;;;;;;;12.58;94.37;100090.41;5037593;28;20068;-73
2022/10/01 04:27:31;;;;;;;1.85;0.40;;;;;;;12.57;94.23;100083.53;5019062;28;20034;-73
2022/10/01 04:29:57;;;;;;;2.05;0.60;;;;;;;12.61;94.00;100098.16;5022695;28;20033;-73
2022/10/01 04:32:22;;;;;;;0.68;0.50;;;;;;;12.63;94.20;100101.63;5021961;28;20559;-73
2022/10/01 04:34:54;;;;;;;0.60;0.50;;;;;;;12.61;94.28;100098.16;5020737;28;20032;-73
2022/10/01 04:37:20;;;;;;;0.95;0.40;;;;;;;12.58;94.97;100101.56;5020423;28;20065;-73
2022/10/01 04:39:46;;;;;;;2.13;0.50;;;;;;;12.63;94.50;100098.19;5025515;28;20114;-73
2022/10/01 04:42:14;;;;;;;0.70;0.40;;;;;;;12.63;94.93;100106.78;5017868;28;20057;-73
2022/10/01 04:44:40;;;;;;;0.50;0.30;;;;;;;12.62;95.10;100115.38;5018481;28;20401;-72
2022/10/01 04:47:07;;;;;;;0.73;0.40;;;;;;;12.59;95.60;100116.19;5020601;28;20030;-72
2022/10/01 04:49:32;;;;;;;2.22;0.50;;;;;;;12.65;95.51;100119.69;5023825;28;20025;-72
2022/10/01 04:51:59;;;;;;;0.63;0.50;;;;;;;12.61;95.49;100121.34;5022164;28;20033;-73
2022/10/01 04:54:24;;;;;;;0.50;0.40;;;;;;;12.66;95.55;100124.84;5024371;28;20106;-73
2022/10/01 04:56:49;;;;;;;1.98;0.52;;;;;;;12.71;95.18;100124.88;5017308;28;20053;-73
2022/10/01 04:59:15;;;;;;;1.77;0.60;;;;;;;12.73;95.61;100131.78;5022053;28;20087;-72
2022/10/01 05:01:40;;;;;;;1.95;0.60;;;;;;;12.72;95.70;100131.75;5019301;28;20031;-73
2022/10/01 05:04:07;;;;;;;0.82;0.57;;;;;;;12.71;96.11;100138.66;5037901;28;20136;-73
2022/10/01 05:06:33;;;;;;;1.48;0.60;;;;;;;12.68;95.97;100141.22;5041664;28;20507;-73
2022/10/01 05:08:59;;;;;;;2.67;0.57;;;;;;;12.71;95.92;100140.38;5041159;28;20048;-73
2022/10/01 05:11:24;;;;;;;0.88;0.70;;;;;;;12.72;96.80;100142.09;5043710;28;20391;-73
2022/10/01 05:13:50;;;;;;;1.02;0.70;;;;;;;12.72;96.73;100150.69;5024067;28;20099;-73
2022/10/01 05:16:15;;;;;;;1.92;0.80;;;;;;;12.75;96.69;100145.56;5040907;28;20163;-73
2022/10/01 05:18:42;;;;;;;1.92;0.80;;;;;;;12.74;96.91;100143.84;5037692;28;20025;-72
2022/10/01 05:21:10;;;;;;;3.40;0.85;;;;;;;12.76;97.14;100154.16;5037962;28;20044;-72
2022/10/01 05:23:36;;;;;;;1.58;0.70;;;;;;;12.79;97.20;100151.59;5036531;28;20029;-72
2022/10/01 05:26:04;;;;;;;2.78;1.10;;;;;;;12.80;97.22;100161.94;5039389;28;20036;-73
2022/10/01 05:28:33;;;;;;;1.10;1.00;;;;;;;12.79;97.10;100165.34;5034702;28;20151;-72
2022/10/01 05:31:00;;;;;;;1.95;1.20;;;;;;;12.80;97.45;100163.63;5047582;28;20033;-70
2022/10/01 05:33:26;;;;;;;1.55;1.08;;;;;;;12.80;97.60;100177.44;5034965;28;20048;-71
2022/10/01 05:35:52;;;;;;;1.48;1.38;;;;;;;12.84;97.36;100176.59;5038505;28;20033;-71
2022/10/01 05:38:18;;;;;;;2.20;1.20;;;;;;;12.81;98.09;100180.88;5039351;28;20043;-70
2022/10/01 05:40:45;;;;;;;3.42;1.48;;;;;;;12.82;98.26;100178.28;5040149;28;20032;-71
2022/10/01 05:43:11;;;;;;;2.20;1.50;;;;;;;12.86;98.02;100182.63;5038290;28;20035;-71
2022/10/01 05:45:36;;;;;;;2.92;1.60;;;;;;;12.88;97.85;100186.09;5041318;28;20025;-71
2022/10/01 05:48:04;;;;;;;3.90;1.50;;;;;;;12.91;97.98;100194.69;5040270;28;20037;-71
2022/10/01 05:50:32;;;;;;;2.30;1.83;;;;;;;12.93;98.19;100195.59;5042394;28;20585;-71
2022/10/01 05:52:58;;;;;;;3.33;2.08;;;;;;;12.91;98.45;100192.09;5044706;28;20108;-71
2022/10/01 05:55:24;;;;;;;2.80;2.00;;;;;;;12.93;98.20;100201.59;5045303;28;20044;-71
2022/10/01 05:58:10;;;;;;;3.83;2.30;;;;;;;12.98;98.23;100201.63;5036921;28;20033;-70
2022/10/01 06:00:37;;;;;;;2.50;2.30;;;;;;;12.96;98.58;100201.63;5023221;28;20644;-70
2022/10/01 06:03:04;;;;;;;2.70;2.42;;;;;;;12.96;98.42;100200.75;5036928;28;20067;-71
2022/10/01 06:05:31;;;;;;;7.45;2.58;;;;;;;12.97;98.73;100197.31;5040762;28;20100;-71
2022/10/01 06:07:57;;;;;;;4.07;3.08;;;;;;;12.99;98.44;100198.22;5036743;28;20032;-71
2022/10/01 06:10:23;;;;;;;4.25;2.92;;;;;;;12.99;98.61;100211.97;5024970;28;20443;-71
2022/10/01 06:12:49;;;;;;;4.93;3.17;;;;;;;13.00;98.67;100218.00;5042074;28;20046;-70
2022/10/01 06:15:15;;;;;;;3.25;2.95;;;;;;;13.00;98.75;100212.84;5041592;28;20139;-71
2022/10/01 06:17:44;;;;;;;4.65;3.50;;;;;;;13.03;99.05;100224.03;5038421;28;20036;-71
2022/10/01 06:20:16;;;;;;;5.20;3.77;;;;;;;13.05;99.32;100230.09;5041680;28;20037;-70
2022/10/01 06:22:42;;;;;;;4.95;4.32;;;;;;;13.04;99.08;100236.13;5041073;28;20343;-71
2022/10/01 06:25:10;;;;;;;4.78;4.18;;;;;;;13.04;99.23;100241.28;5042704;28;20095;-71
2022/10/01 06:27:35;;;;;;;5.65;5.05;;;;;;;13.08;99.35;100231.81;5022057;28;20033;-71
2022/10/01 06:30:01;;;;;;;9.70;5.43;;;;;;;13.08;99.36;100229.25;5029198;28;20048;-71
2022/10/01 06:32:26;;;;;;;6.07;4.88;;;;;;;13.07;99.39;100224.94;5038568;28;20053;-71
2022/10/01 06:34:51;;;;;;;5.32;4.93;;;;;;;13.06;99.64;100230.94;5041921;28;20025;-71
2022/10/01 06:37:17;;;;;;;6.15;5.00;;;;;;;13.07;99.23;100230.97;5036647;28;20484;-70
2022/10/01 06:39:43;;;;;;;7.10;5.07;;;;;;;13.10;99.50;100235.28;5019185;28;20361;-71
2022/10/01 06:42:09;;;;;;;7.80;5.55;;;;;;;13.17;99.86;100241.38;5014836;28;20029;-71
2022/10/01 06:44:34;;;;;;;6.68;5.38;;;;;;;13.15;100.00;100234.44;5034544;28;20567;-71
2022/10/01 06:47:00;;;;;;;8.05;4.85;;;;;;;13.21;100.00;100231.09;5035484;28;20045;-71
2022/10/01 06:49:25;;;;;;;5.60;4.75;;;;;;;13.22;100.00;100240.56;5015228;28;20032;-71
2022/10/01 06:54:35;;;;;;;6.95;5.50;;;;;;;13.25;100.00;100250.91;5034897;28;20075;-71
2022/10/01 06:57:00;;;;;;;6.78;6.10;;;;;;;13.29;100.00;100249.25;5024056;28;20119;-71
2022/10/01 06:59:25;;;;;;;7.43;6.68;;;;;;;13.32;100.00;100249.25;5016373;28;20048;-71
2022/10/01 07:01:52;;;;;;;10.23;7.97;;;;;;;13.34;100.00;100248.38;5019538;28;20993;-71
2022/10/01 07:04:18;;;;;;;11.23;7.88;;;;;;;13.35;100.00;100257.88;5033676;28;20128;-72
2022/10/01 07:06:44;;;;;;;8.23;7.38;;;;;;;13.34;100.00;100250.97;5019773;28;20054;-72
2022/10/01 07:09:09;;;;;;;8.07;7.43;;;;;;;13.34;100.00;100256.13;5037827;28;20106;-71
2022/10/01 07:11:40;;;;;;;11.38;7.20;;;;;;;13.37;100.00;100273.38;5035778;28;20091;-72
2022/10/01 07:14:08;;;;;;;8.27;7.47;;;;;;;13.35;100.00;100269.94;5033533;28;20056;-71
2022/10/01 07:16:37;;;;;;;8.05;7.13;;;;;;;13.40;100.00;100271.66;5035664;28;20071;-71
2022/10/01 07:19:02;;;;;;;10.00;7.38;;;;;;;13.44;100.00;100263.97;5036537;28;20049;-71
2022/10/01 07:21:27;;;;;;;10.35;6.88;;;;;;;13.50;100.00;100276.91;5031680;28;20037;-71
2022/10/01 07:23:53;;;;;;;7.90;6.60;;;;;;;13.51;100.00;100273.47;5036538;28;20388;-71
2022/10/01 07:26:18;;;;;;;8.07;6.60;;;;;;;13.56;100.00;100270.06;5033073;28;20167;-70
2022/10/01 07:28:45;;;;;;;11.50;10.00;;;;;;;13.59;100.00;100292.47;5019345;28;20116;-71
2022/10/01 07:31:10;;;;;;;15.30;13.82;;;;;;;13.61;100.00;100290.78;5046311;28;20029;-71
2022/10/01 07:33:39;;;;;;;15.10;13.52;;;;;;;13.63;100.00;100282.16;5037242;28;20028;-71
2022/10/01 07:36:09;;;;;;;15.45;13.85;;;;;;;13.69;100.00;100289.09;5039050;28;20094;-71
2022/10/01 07:38:35;;;;;;;13.77;12.38;;;;;;;13.71;100.00;100289.09;5037335;28;20036;-71
2022/10/01 07:41:02;;;;;;;14.27;11.77;;;;;;;13.72;100.00;100298.59;5046154;28;20037;-70
2022/10/01 07:43:29;;;;;;;11.32;9.88;;;;;;;13.71;100.00;100308.06;5046999;28;20119;-70
2022/10/01 07:45:56;;;;;;;11.40;10.23;;;;;;;13.71;100.00;100302.00;5037397;28;20029;-71
2022/10/01 07:48:23;;;;;;;12.25;8.85;;;;;;;13.68;100.00;100310.63;5040700;28;20112;-71
2022/10/01 07:50:49;;;;;;;10.35;7.82;;;;;;;13.70;100.00;100308.91;5042324;28;20024;-71
2022/10/01 07:53:15;;;;;;;9.00;6.97;;;;;;;13.70;100.00;100321.81;5040470;28;20037;-71
2022/10/01 07:55:40;;;;;;;10.70;6.97;;;;;;;13.68;100.00;100329.56;5019893;28;20488;-71
2022/10/01 07:58:06;;;;;;;9.80;7.40;;;;;;;13.68;100.00;100321.81;5047846;28;20055;-71
2022/10/01 08:00:33;;;;;;;8.52;6.57;;;;;;;13.66;100.00;100322.69;5025463;28;20068;-72
2022/10/01 08:02:58;;;;;;;7.60;6.82;;;;;;;13.67;100.00;100321.81;5044873;28;20056;-71
2022/10/01 08:05:27;;;;;;;9.63;6.20;;;;;;;13.69;100.00;100339.03;5018717;28;20033;-71
2022/10/01 08:08:00;;;;;;;9.35;5.50;;;;;;;13.70;100.00;100337.31;5043179;28;20029;-70
2022/10/01 08:10:25;;;;;;;8.82;5.15;;;;;;;13.74;100.00;100345.97;5028745;28;20129;-71
2022/10/01 08:12:51;;;;;;;6.72;4.82;;;;;;;13.76;100.00;100341.66;5026385;28;20563;-71
2022/10/01 08:15:17;;;;;;;6.03;5.43;;;;;;;13.79;100.00;100347.75;5046666;28;20017;-70
2022/10/01 08:17:43;;;;;;;8.18;5.80;;;;;;;13.88;100.00;100352.09;5040094;28;20020;-71
2022/10/01 08:20:11;;;;;;;7.75;6.00;;;;;;;13.94;100.00;100367.63;5042083;28;20372;-69
2022/10/01 08:22:37;;;;;;;8.50;6.50;;;;;;;13.98;100.00;100368.53;5039732;28;20032;-70
2022/10/01 08:25:03;;;;;;;10.48;6.57;;;;;;;13.97;100.00;100371.97;5040709;28;20045;-71
2022/10/01 08:27:29;;;;;;;10.10;7.20;;;;;;;13.99;100.00;100375.44;5043458;28;20028;-71
2022/10/01 08:29:55;;;;;;;11.05;8.30;;;;;;;13.96;100.00;100376.28;5042637;28;20036;-70
2022/10/01 08:32:23;;;;;;;11.23;8.15;;;;;;;13.97;100.00;100378.00;5052892;28;20126;-72
2022/10/01 08:34:50;;;;;;;10.02;8.73;;;;;;;14.01;100.00;100377.16;5048725;28;20020;-73
2022/10/01 08:37:16;;;;;;;13.55;9.45;;;;;;;14.03;100.00;100382.34;5050823;28;20078;-72
2022/10/01 08:39:41;;;;;;;12.90;10.00;;;;;;;14.04;100.00;100379.78;5045382;28;20063;-72
2022/10/01 08:42:42;;;;;;;11.88;9.70;;;;;;;14.09;100.00;100383.25;5051239;28;20024;-73
2022/10/01 08:45:41;;;;;;;13.02;10.07;;;;;;;14.15;100.00;100387.59;5048292;28;20112;-72
2022/10/01 08:48:08;;;;;;;15.25;10.80;;;;;;;14.20;100.00;100385.91;5049410;28;20025;-72
2022/10/01 08:50:51;;;;;;;14.38;10.82;;;;;;;14.30;100.00;100372.16;5049577;28;20032;-72
2022/10/01 08:53:43;;;;;;;13.65;11.43;;;;;;;14.45;100.00;100373.97;5041126;28;20017;-72
2022/10/01 08:56:20;;;;;;;14.88;11.00;;;;;;;14.60;100.00;100391.28;5046109;28;20500;-72
2022/10/01 08:58:52;;;;;;;12.57;10.27;;;;;;;14.75;100.00;100383.59;5034557;28;20041;-72
2022/10/01 09:01:18;;;;;;;12.73;10.00;;;;;;;14.75;100.00;100384.47;5040783;28;20507;-71
2022/10/01 09:03:43;;;;;;;10.70;8.90;;;;;;;14.90;100.00;100390.53;5037707;28;20061;-72
2022/10/01 09:06:28;;;;;;;9.88;8.40;;;;;;;14.97;100.00;100389.69;5049591;28;20025;-72
2022/10/01 09:09:02;;;;;;;9.05;7.18;;;;;;;15.02;100.00;100399.19;5045305;28;20041;-72
2022/10/01 09:11:36;;;;;;;9.02;6.40;;;;;;;15.07;100.00;100399.22;5055311;28;20052;-71
2022/10/01 09:14:23;;;;;;;9.85;6.20;;;;;;;15.11;100.00;100407.88;5050264;28;20059;-72
2022/10/01 09:17:09;;;;;;;11.30;5.70;;;;;;;15.19;100.00;100408.75;5046695;28;20476;-72
2022/10/01 09:20:08;;;;;;;10.48;5.57;;;;;;;15.29;100.00;100415.69;5045085;28;20480;-72
2022/10/01 09:22:38;;;;;;;;;;;;;;;15.38;100.00;100420.00;5054282;28;20048;-72
2022/10/01 09:25:26;;;;;;;7.68;4.47;;;;;;;15.33;100.00;100421.72;5041606;28;20408;-72
2022/10/01 09:27:59;;;;;;;11.52;4.18;;;;;;;15.33;100.00;100427.75;5044425;28;20037;-72
2022/10/01 09:30:25;;;;;;;11.90;4.18;;;;;;;15.25;100.00;100422.56;5044500;28;20025;-72
2022/10/01 09:33:10;;;;;;;8.68;3.60;;;;;;;15.36;100.00;100432.09;5046380;28;20108;-71
2022/10/01 09:35:51;;;;;;;9.90;3.50;;;;;;;15.37;100.00;100432.09;5047169;28;20029;-72
2022/10/01 09:38:30;;;;;;;10.15;3.50;;;;;;;15.49;100.00;100432.09;5046677;28;20479;-71
2022/10/01 09:40:57;;;;;;;10.27;2.92;;;;;;;15.56;100.00;100420.88;5046739;28;20033;-71
2022/10/01 09:43:27;;;;;;;10.07;2.60;;;;;;;15.61;100.00;100422.63;5046767;28;20094;-71
2022/10/01 09:45:53;;;;;;;12.07;2.13;;;;;;;15.66;99.71;100426.97;5046574;28;20029;-72
2022/10/01 09:48:24;;;;;;;11.93;2.22;;;;;;;15.84;99.86;100427.84;5046624;28;20123;-71
2022/10/01 09:50:57;;;;;;;8.75;2.17;;;;;;;15.92;99.18;100426.09;5039964;28;20115;-71
2022/10/01 09:53:45;;;;;;;12.18;1.88;;;;;;;15.95;97.01;100432.13;5041135;28;20017;-72
2022/10/01 09:56:17;;;;;;;12.60;2.20;;;;;;;15.99;98.34;100435.59;5048831;28;20033;-73
2022/10/01 09:58:49;;;;;;;15.57;2.50;;;;;;;16.03;98.25;100427.81;5047394;28;20017;-72
2022/10/01 10:01:25;;;;;;;11.57;2.00;;;;;;;16.04;96.17;100437.31;5047105;28;20024;-72
2022/10/01 10:03:56;;;;;;;10.48;2.47;;;;;;;16.03;96.75;100432.13;5043222;28;20124;-72
2022/10/01 10:06:27;;;;;;;9.82;2.00;;;;;;;16.00;96.02;100443.34;5046728;28;20020;-72
2022/10/01 10:08:57;;;;;;;10.82;2.38;;;;;;;15.95;95.53;100452.88;5045315;28;20123;-72
2022/10/01 10:11:28;;;;;;;9.93;2.08;;;;;;;15.89;94.52;100445.09;5046026;28;20016;-72
2022/10/01 10:14:02;;;;;;;10.32;1.80;;;;;;;15.89;94.88;100447.69;5047267;28;20112;-72
2022/10/01 10:16:33;;;;;;;17.33;2.58;;;;;;;15.99;93.98;100457.19;5046223;28;20033;-72
2022/10/01 10:19:09;;;;;;;11.05;1.98;;;;;;;16.01;93.52;100467.56;5046033;28;20028;-72
2022/10/01 10:21:35;;;;;;;14.38;2.00;;;;;;;15.94;91.77;100458.94;5045575;28;20033;-73
2022/10/01 10:24:21;;;;;;;12.93;1.98;;;;;;;15.95;91.90;100473.63;5045984;28;20576;-72
2022/10/01 10:26:55;;;;;;;11.98;1.90;;;;;;;15.91;91.83;100479.69;5051307;28;20036;-71
2022/10/01 10:29:39;;;;;;;9.63;2.05;;;;;;;15.98;92.62;100488.31;5042632;28;20072;-72
2022/10/01 10:32:25;;;;;;;13.15;2.15;;;;;;;16.04;91.68;100494.38;5039641;28;20064;-72
2022/10/01 10:34:53;;;;;;;12.68;2.20;;;;;;;16.22;90.70;100495.22;5046413;28;20028;-72
2022/10/01 10:37:26;;;;;;;16.25;2.55;;;;;;;16.29;89.28;100497.81;5046446;28;20025;-72
2022/10/01 10:39:52;;;;;;;14.85;2.33;;;;;;;16.40;89.24;100515.97;5049452;28;20611;-73
2022/10/01 10:42:19;;;;;;;12.05;1.85;;;;;;;16.52;87.59;100512.50;5041648;28;20037;-73
2022/10/01 10:44:48;;;;;;;10.82;2.03;;;;;;;16.54;88.34;100518.53;5046109;28;20041;-72
2022/10/01 10:47:16;;;;;;;11.55;2.35;;;;;;;16.65;86.53;100510.72;5048167;28;20030;-73
2022/10/01 10:49:56;;;;;;;12.20;1.98;;;;;;;16.88;87.93;100515.03;5049785;28;20037;-73
2022/10/01 10:52:35;;;;;;;10.82;2.20;;;;;;;17.04;84.49;100526.22;5049226;28;20515;-75
2022/10/01 10:55:17;;;;;;;15.10;2.20;;;;;;;17.12;83.43;100526.19;5050608;28;20086;-72
2022/10/01 10:57:43;;;;;;;12.35;1.80;;;;;;;16.97;83.37;100540.09;5051257;28;20487;-73
2022/10/01 11:00:22;;;;;;;17.25;2.70;;;;;;;16.88;83.18;100540.13;5055310;28;20040;-73
2022/10/01 11:02:57;;;;;;;10.63;2.22;;;;;;;16.78;83.31;100541.00;5043553;28;20071;-72
2022/10/01 11:05:30;;;;;;;13.38;2.65;;;;;;;16.65;82.95;100541.88;5014128;28;20068;-73
2022/10/01 11:08:03;;;;;;;11.65;1.92;;;;;;;16.53;81.88;100555.75;5035514;28;20389;-73
2022/10/01 11:10:40;;;;;;;18.42;2.58;;;;;;;16.54;82.01;100560.06;5044594;28;20024;-73
2022/10/01 11:13:12;;;;;;;9.60;1.75;;;;;;;16.46;82.12;100560.09;5056863;28;20024;-72
2022/10/01 11:16:19;;;;;;;13.82;2.00;;;;;;;16.55;83.59;100562.66;5048919;28;20135;-73
2022/10/01 11:19:07;;;;;;;12.93;2.05;;;;;;;16.52;82.65;100557.47;5015237;28;20440;-71
2022/10/01 11:21:51;;;;;;;13.77;2.22;;;;;;;16.50;81.30;100561.81;5044557;28;20040;-71
2022/10/01 11:24:30;;;;;;;13.90;1.90;;;;;;;16.50;80.76;100572.19;5051595;28;20032;-73
2022/10/01 11:27:04;;;;;;;12.20;2.08;;;;;;;16.51;80.11;100583.44;5046080;28;20496;-71
2022/10/01 11:29:37;;;;;;;13.75;1.92;;;;;;;16.54;80.04;100591.22;5039643;28;20135;-72
2022/10/01 11:32:16;;;;;;;15.63;2.28;;;;;;;16.78;80.56;100583.44;5027987;28;20045;-72
2022/10/01 11:34:56;;;;;;;13.82;2.15;;;;;;;17.00;78.14;100586.84;5047880;28;20017;-72
2022/10/01 11:37:59;;;;;;;17.30;2.58;;;;;;;16.99;78.40;100589.47;5043929;28;20519;-71